LiveATC.Net - Listen to live air traffic control over the Internet!


ICAO: KPTW  IATA: PTW   Airport: Heritage Field Airport
City: Pottstown   State/Province: Pennsylvania
Country: United States   Continent: North America
KPTW METAR Weather: KPTW 122254Z AUTO 00000KT 9SM -RA FEW035 BKN090 OVC120 26/22 A3018 RMK AO2 RAB2156E02B25 SLP216 P0000 T02610217
KPTW ADS-B Flight Tracking  (ADSBExchange)
KPTW Flight Activity (FlightAware)
KPTW Airport Info   (iFlightPlanner)
KPTW VFR Sectional Chart   (iFlightPlanner) 
KPTW IFR Low Altitude Chart   (iFlightPlanner) 
KPTW IFR High Altitude Chart   (iFlightPlanner) 

KPTW CTAF
Feed Status: DOWN
Last heard on: NOT CONNECTED YET
Archive Access: KPTW CTAF
FacilityFrequency
Pottstown CTAF122.700

NOTICE

Unauthorized use prohibited. See LiveATC.net Terms of Service


Airport/ARTCC Code
Frequency Search
(e.g., 124.400, 128.75)
Site-wide search
 


Browse Feeds
Top 50 Feeds
HF Oceanic Feeds
Coverage Map
Bad Weather Areas

LiveATC FAQ

Increase Coverage

Contact LiveATC.net
Press Inquiries

LiveATC on iPhone
LiveATC on Android

LiveATC Mobile
(Mobile browser)

ATC Audio Archives
Interesting Recordings

LiveATC Forums


Home Page
About LiveATC.net


Terms of Use
Privacy Policy

AIRMETs/SIGMETs

FAA Airport Status
NAS Status
Arrival Demand


Server Software By:
Icecast.org
Liquidsoap